sensor_id;sensor_type;location;lat;lon;timestamp;pressure;altitude;pressure_sealevel;temperature;humidity
72857;BME280;62742;52.136;4.500;2023-05-12T00:00:50;101868.84;;;12.29;95.03
72857;BME280;62742;52.136;4.500;2023-05-12T00:03:16;101869.69;;;12.34;94.46
72857;BME280;62742;52.136;4.500;2023-05-12T00:05:43;101867.91;;;12.33;93.74
72857;BME280;62742;52.136;4.500;2023-05-12T00:08:09;101872.41;;;12.19;95.28
72857;BME280;62742;52.136;4.500;2023-05-12T00:10:35;101870.56;;;12.33;94.42
72857;BME280;62742;52.136;4.500;2023-05-12T00:13:01;101871.56;;;12.13;95.08
72857;BME280;62742;52.136;4.500;2023-05-12T00:15:28;101866.31;;;12.07;95.94
72857;BME280;62742;52.136;4.500;2023-05-12T00:17:54;101871.56;;;12.10;96.47
72857;BME280;62742;52.136;4.500;2023-05-12T00:20:20;101871.63;;;12.04;94.85
72857;BME280;62742;52.136;4.500;2023-05-12T00:22:47;101869.91;;;11.94;95.22
72857;BME280;62742;52.136;4.500;2023-05-12T00:25:13;101869.88;;;11.97;94.35
72857;BME280;62742;52.136;4.500;2023-05-12T00:27:39;101864.59;;;12.06;94.31
72857;BME280;62742;52.136;4.500;2023-05-12T00:30:06;101864.59;;;12.03;94.29
72857;BME280;62742;52.136;4.500;2023-05-12T00:32:32;101865.50;;;11.96;95.14
72857;BME280;62742;52.136;4.500;2023-05-12T00:34:58;101862.03;;;11.91;95.33
72857;BME280;62742;52.136;4.500;2023-05-12T00:37:25;101857.59;;;11.85;95.05
72857;BME280;62742;52.136;4.500;2023-05-12T00:39:51;101856.72;;;11.95;95.27
72857;BME280;62742;52.136;4.500;2023-05-12T00:42:17;101857.66;;;11.84;94.24
72857;BME280;62742;52.136;4.500;2023-05-12T00:44:43;101858.50;;;11.89;94.35
72857;BME280;62742;52.136;4.500;2023-05-12T00:47:09;101859.44;;;11.66;95.35
72857;BME280;62742;52.136;4.500;2023-05-12T00:49:36;101851.59;;;11.54;96.07
72857;BME280;62742;52.136;4.500;2023-05-12T00:52:07;101848.97;;;11.48;96.87
72857;BME280;62742;52.136;4.500;2023-05-12T00:54:33;101851.59;;;11.54;96.97
72857;BME280;62742;52.136;4.500;2023-05-12T00:57:00;101857.72;;;11.60;96.46
72857;BME280;62742;52.136;4.500;2023-05-12T00:59:27;101848.03;;;11.66;96.41
72857;BME280;62742;52.136;4.500;2023-05-12T01:01:54;101852.47;;;11.59;95.88
72857;BME280;62742;52.136;4.500;2023-05-12T01:04:21;101859.44;;;11.63;96.38
72857;BME280;62742;52.136;4.500;2023-05-12T01:06:50;101857.66;;;11.73;96.46
72857;BME280;62742;52.136;4.500;2023-05-12T01:09:20;101848.09;;;11.53;97.32
72857;BME280;62742;52.136;4.500;2023-05-12T01:11:46;101847.19;;;11.56;97.77
72857;BME280;62742;52.136;4.500;2023-05-12T01:14:13;101847.19;;;11.59;96.54
72857;BME280;62742;52.136;4.500;2023-05-12T01:16:40;101847.16;;;11.68;95.16
72857;BME280;62742;52.136;4.500;2023-05-12T01:19:18;101843.66;;;11.66;96.39
72857;BME280;62742;52.136;4.500;2023-05-12T01:21:59;101838.44;;;11.48;96.97
72857;BME280;62742;52.136;4.500;2023-05-12T01:24:26;101843.69;;;11.60;97.45
72857;BME280;62742;52.136;4.500;2023-05-12T01:26:53;101857.75;;;11.50;96.72
72857;BME280;62742;52.136;4.500;2023-05-12T01:29:20;101846.28;;;11.65;96.93
72857;BME280;62742;52.136;4.500;2023-05-12T01:31:47;101845.47;;;11.55;95.92
72857;BME280;62742;52.136;4.500;2023-05-12T01:34:17;101841.06;;;11.62;95.97
72857;BME280;62742;52.136;4.500;2023-05-12T01:36:43;101844.59;;;11.50;95.29
72857;BME280;62742;52.136;4.500;2023-05-12T01:39:09;101848.97;;;11.48;95.54
72857;BME280;62742;52.136;4.500;2023-05-12T01:41:36;101850.78;;;11.39;97.29
72857;BME280;62742;52.136;4.500;2023-05-12T01:44:02;101853.31;;;11.64;96.02
72857;BME280;62742;52.136;4.500;2023-05-12T01:46:28;101845.41;;;11.61;95.83
72857;BME280;62742;52.136;4.500;2023-05-12T01:48:54;101843.66;;;11.65;95.70
72857;BME280;62742;52.136;4.500;2023-05-12T01:51:20;101836.66;;;11.53;96.02
72857;BME280;62742;52.136;4.500;2023-05-12T01:53:47;101842.84;;;11.44;97.00
72857;BME280;62742;52.136;4.500;2023-05-12T01:56:13;101843.69;;;11.54;97.28
72857;BME280;62742;52.136;4.500;2023-05-12T01:58:39;101848.03;;;11.67;96.42
72857;BME280;62742;52.136;4.500;2023-05-12T02:01:05;101844.59;;;11.45;96.19
72857;BME280;62742;52.136;4.500;2023-05-12T02:03:31;101843.72;;;11.48;98.25
72857;BME280;62742;52.136;4.500;2023-05-12T02:05:57;101843.69;;;11.60;96.65
72857;BME280;62742;52.136;4.500;2023-05-12T02:08:24;101842.88;;;11.39;98.25
72857;BME280;62742;52.136;4.500;2023-05-12T02:11:02;101834.09;;;11.47;96.96
72857;BME280;62742;52.136;4.500;2023-05-12T02:13:29;101838.53;;;11.23;98.77
72857;BME280;62742;52.136;4.500;2023-05-12T02:15:55;101850.81;;;11.21;99.61
72857;BME280;62742;52.136;4.500;2023-05-12T02:18:22;101843.78;;;11.29;98.94
72857;BME280;62742;52.136;4.500;2023-05-12T02:20:48;101833.22;;;11.35;98.04
72857;BME280;62742;52.136;4.500;2023-05-12T02:23:14;101843.75;;;11.37;98.59
72857;BME280;62742;52.136;4.500;2023-05-12T02:25:40;101836.72;;;11.40;98.19
72857;BME280;62742;52.136;4.500;2023-05-12T02:28:07;101828.81;;;11.48;97.29
72857;BME280;62742;52.136;4.500;2023-05-12T02:30:36;101835.84;;;11.37;98.01
72857;BME280;62742;52.136;4.500;2023-05-12T02:33:03;101837.63;;;11.29;98.32
72857;BME280;62742;52.136;4.500;2023-05-12T02:35:32;101820.06;;;11.43;97.89
72857;BME280;62742;52.136;4.500;2023-05-12T02:37:58;101828.88;;;11.31;98.04
72857;BME280;62742;52.136;4.500;2023-05-12T02:40:25;101823.59;;;11.22;98.28
72857;BME280;62742;52.136;4.500;2023-05-12T02:42:51;101828.88;;;11.31;98.90
72857;BME280;62742;52.136;4.500;2023-05-12T02:45:17;101826.28;;;11.16;98.99
72857;BME280;62742;52.136;4.500;2023-05-12T02:47:43;101822.75;;;11.23;99.30
72857;BME280;62742;52.136;4.500;2023-05-12T02:50:10;101817.47;;;11.17;99.58
72857;BME280;62742;52.136;4.500;2023-05-12T02:52:36;101806.94;;;11.28;99.50
72857;BME280;62742;52.136;4.500;2023-05-12T02:55:02;101813.03;;;11.45;99.24
72857;BME280;62742;52.136;4.500;2023-05-12T02:57:28;101815.66;;;11.40;98.98
72857;BME280;62742;52.136;4.500;2023-05-12T03:00:02;101806.03;;;11.35;98.50
72857;BME280;62742;52.136;4.500;2023-05-12T03:02:33;101809.53;;;11.38;99.51
72857;BME280;62742;52.136;4.500;2023-05-12T03:05:00;101800.72;;;11.53;98.70
72857;BME280;62742;52.136;4.500;2023-05-12T03:07:28;101810.34;;;11.60;97.58
72857;BME280;62742;52.136;4.500;2023-05-12T03:09:54;101812.13;;;11.48;99.02
72857;BME280;62742;52.136;4.500;2023-05-12T03:12:22;101802.50;;;11.37;99.70
72857;BME280;62742;52.136;4.500;2023-05-12T03:14:48;101801.63;;;11.46;99.48
72857;BME280;62742;52.136;4.500;2023-05-12T03:17:16;101796.44;;;11.25;100.00
72857;BME280;62742;52.136;4.500;2023-05-12T03:19:42;101797.25;;;11.39;100.00
72857;BME280;62742;52.136;4.500;2023-05-12T03:22:08;101794.66;;;11.36;100.00
72857;BME280;62742;52.136;4.500;2023-05-12T03:24:34;101793.78;;;11.23;100.00
72857;BME280;62742;52.136;4.500;2023-05-12T03:27:01;101792.03;;;11.27;100.00
72857;BME280;62742;52.136;4.500;2023-05-12T03:29:27;101791.13;;;11.34;100.00
72857;BME280;62742;52.136;4.500;2023-05-12T03:31:53;101785.91;;;11.21;100.00
72857;BME280;62742;52.136;4.500;2023-05-12T03:34:20;101784.13;;;11.34;100.00
72857;BME280;62742;52.136;4.500;2023-05-12T03:36:46;101783.28;;;11.28;100.00
72857;BME280;62742;52.136;4.500;2023-05-12T03:39:12;101787.69;;;11.21;100.00
72857;BME280;62742;52.136;4.500;2023-05-12T03:41:38;101792.84;;;11.42;100.00
72857;BME280;62742;52.136;4.500;2023-05-12T03:44:05;101782.41;;;11.22;100.00
72857;BME280;62742;52.136;4.500;2023-05-12T03:46:33;101792.03;;;11.25;100.00
72857;BME280;62742;52.136;4.500;2023-05-12T03:48:59;101792.94;;;11.18;100.00
72857;BME280;62742;52.136;4.500;2023-05-12T03:51:26;101791.16;;;11.29;100.00
72857;BME280;62742;52.136;4.500;2023-05-12T03:53:56;101792.97;;;11.07;100.00
72857;BME280;62742;52.136;4.500;2023-05-12T03:56:22;101782.41;;;11.21;100.00
72857;BME280;62742;52.136;4.500;2023-05-12T03:58:48;101772.75;;;11.23;100.00
72857;BME280;62742;52.136;4.500;2023-05-12T04:01:14;101784.13;;;11.31;100.00
72857;BME280;62742;52.136;4.500;2023-05-12T04:03:40;101780.66;;;11.23;100.00
72857;BME280;62742;52.136;4.500;2023-05-12T04:06:07;101771.88;;;11.24;100.00
72857;BME280;62742;52.136;4.500;2023-05-12T04:08:33;101774.53;;;11.10;100.00
72857;BME280;62742;52.136;4.500;2023-05-12T04:11:00;101786.81;;;11.07;100.00
72857;BME280;62742;52.136;4.500;2023-05-12T04:13:27;101785.94;;;11.04;100.00
72857;BME280;62742;52.136;4.500;2023-05-12T04:15:54;101782.44;;;11.09;100.00
72857;BME280;62742;52.136;4.500;2023-05-12T04:18:24;101784.22;;;10.97;100.00
72857;BME280;62742;52.136;4.500;2023-05-12T04:20:51;101792.09;;;11.03;100.00
72857;BME280;62742;52.136;4.500;2023-05-12T04:23:18;101793.84;;;11.00;100.00
72857;BME280;62742;52.136;4.500;2023-05-12T04:25:45;101786.81;;;11.13;100.00
72857;BME280;62742;52.136;4.500;2023-05-12T04:28:11;101783.28;;;11.17;100.00
72857;BME280;62742;52.136;4.500;2023-05-12T04:30:38;101780.69;;;11.11;100.00
72857;BME280;62742;52.136;4.500;2023-05-12T04:33:05;101785.91;;;11.28;100.00
72857;BME280;62742;52.136;4.500;2023-05-12T04:35:32;101777.16;;;11.19;100.00
72857;BME280;62742;52.136;4.500;2023-05-12T04:37:58;101777.09;;;11.30;100.00
72857;BME280;62742;52.136;4.500;2023-05-12T04:40:26;101774.41;;;11.42;100.00
72857;BME280;62742;52.136;4.500;2023-05-12T04:42:52;101778.81;;;11.47;100.00
72857;BME280;62742;52.136;4.500;2023-05-12T04:45:19;101781.44;;;11.47;100.00
72857;BME280;62742;52.136;4.500;2023-05-12T04:47:45;101782.28;;;11.52;100.00
72857;BME280;62742;52.136;4.500;2023-05-12T04:50:11;101785.84;;;11.40;100.00
72857;BME280;62742;52.136;4.500;2023-05-12T04:52:38;101784.13;;;11.36;100.00
72857;BME280;62742;52.136;4.500;2023-05-12T04:55:04;101779.78;;;11.24;100.00
72857;BME280;62742;52.136;4.500;2023-05-12T04:57:32;101792.88;;;11.33;100.00
72857;BME280;62742;52.136;4.500;2023-05-12T04:59:58;101797.25;;;11.37;100.00
72857;BME280;62742;52.136;4.500;2023-05-12T05:02:25;101787.56;;;11.55;100.00
72857;BME280;62742;52.136;4.500;2023-05-12T05:04:52;101791.91;;;11.57;100.00
72857;BME280;62742;52.136;4.500;2023-05-12T05:07:19;101794.53;;;11.57;100.00
72857;BME280;62742;52.136;4.500;2023-05-12T05:09:45;101800.66;;;11.67;100.00
72857;BME280;62742;52.136;4.500;2023-05-12T05:12:11;101794.47;;;11.74;100.00
72857;BME280;62742;52.136;4.500;2023-05-12T05:14:37;101805.06;;;11.62;100.00
72857;BME280;62742;52.136;4.500;2023-05-12T05:17:04;101798.91;;;11.63;100.00
72857;BME280;62742;52.136;4.500;2023-05-12T05:19:32;101807.63;;;11.73;100.00
72857;BME280;62742;52.136;4.500;2023-05-12T05:21:58;101806.78;;;11.66;100.00
72857;BME280;62742;52.136;4.500;2023-05-12T05:24:25;101808.56;;;11.58;100.00
72857;BME280;62742;52.136;4.500;2023-05-12T05:26:51;101809.41;;;11.68;100.00
72857;BME280;62742;52.136;4.500;2023-05-12T05:29:18;101816.44;;;11.67;100.00
72857;BME280;62742;52.136;4.500;2023-05-12T05:31:44;101809.41;;;11.75;100.00
72857;BME280;62742;52.136;4.500;2023-05-12T05:34:10;101810.31;;;11.67;100.00
72857;BME280;62742;52.136;4.500;2023-05-12T05:36:37;101817.31;;;11.69;100.00
72857;BME280;62742;52.136;4.500;2023-05-12T05:39:03;101819.88;;;11.80;100.00
72857;BME280;62742;52.136;4.500;2023-05-12T05:41:29;101812.81;;;11.90;100.00
72857;BME280;62742;52.136;4.500;2023-05-12T05:43:55;101826.03;;;11.84;100.00
72857;BME280;62742;52.136;4.500;2023-05-12T05:46:21;101819.00;;;11.89;100.00
72857;BME280;62742;52.136;4.500;2023-05-12T05:48:48;101829.53;;;11.89;100.00
72857;BME280;62742;52.136;4.500;2023-05-12T05:51:14;101833.00;;;12.00;100.00
72857;BME280;62742;52.136;4.500;2023-05-12T05:53:40;101831.19;;;12.08;100.00
72857;BME280;62742;52.136;4.500;2023-05-12T05:56:06;101836.53;;;11.96;100.00
72857;BME280;62742;52.136;4.500;2023-05-12T05:58:33;101831.22;;;12.02;100.00
72857;BME280;62742;52.136;4.500;2023-05-12T06:00:59;101831.22;;;12.02;100.00
72857;BME280;62742;52.136;4.500;2023-05-12T06:03:25;101840.06;;;11.92;100.00
72857;BME280;62742;52.136;4.500;2023-05-12T06:05:52;101835.69;;;11.94;100.00
72857;BME280;62742;52.136;4.500;2023-05-12T06:08:18;101831.22;;;12.05;100.00
72857;BME280;62742;52.136;4.500;2023-05-12T06:10:44;101833.81;;;12.14;100.00
72857;BME280;62742;52.136;4.500;2023-05-12T06:13:10;101839.88;;;12.24;100.00
72857;BME280;62742;52.136;4.500;2023-05-12T06:15:37;101837.22;;;12.29;100.00
72857;BME280;62742;52.136;4.500;2023-05-12T06:18:03;101835.50;;;12.20;100.00
72857;BME280;62742;52.136;4.500;2023-05-12T06:20:30;101852.19;;;12.24;100.00
72857;BME280;62742;52.136;4.500;2023-05-12T06:22:57;101852.09;;;12.36;100.00
72857;BME280;62742;52.136;4.500;2023-05-12T06:25:23;101853.88;;;12.29;100.00
72857;BME280;62742;52.136;4.500;2023-05-12T06:27:50;101843.31;;;12.34;100.00
72857;BME280;62742;52.136;4.500;2023-05-12T06:30:17;101851.31;;;12.25;100.00
72857;BME280;62742;52.136;4.500;2023-05-12T06:32:44;101848.50;;;12.49;100.00
72857;BME280;62742;52.136;4.500;2023-05-12T06:35:10;101848.53;;;12.43;100.00
72857;BME280;62742;52.136;4.500;2023-05-12T06:37:36;101839.72;;;12.50;100.00
72857;BME280;62742;52.136;4.500;2023-05-12T06:40:03;101843.22;;;12.51;100.00
72857;BME280;62742;52.136;4.500;2023-05-12T06:42:29;101847.53;;;12.58;100.00
72857;BME280;62742;52.136;4.500;2023-05-12T06:44:56;101845.72;;;12.68;100.00
72857;BME280;62742;52.136;4.500;2023-05-12T06:47:22;101843.69;;;12.96;100.00
72857;BME280;62742;52.136;4.500;2023-05-12T06:49:49;101847.19;;;13.00;100.00
72857;BME280;62742;52.136;4.500;2023-05-12T06:52:16;101859.28;;;13.22;100.00
72857;BME280;62742;52.136;4.500;2023-05-12T06:54:42;101856.59;;;13.32;100.00
72857;BME280;62742;52.136;4.500;2023-05-12T06:57:08;101849.50;;;13.34;100.00
72857;BME280;62742;52.136;4.500;2023-05-12T06:59:35;101856.41;;;13.47;100.00
72857;BME280;62742;52.136;4.500;2023-05-12T07:02:01;101858.69;;;13.76;98.48
72857;BME280;62742;52.136;4.500;2023-05-12T07:04:28;101854.38;;;13.71;98.58
72857;BME280;62742;52.136;4.500;2023-05-12T07:06:54;101856.31;;;13.56;98.39
72857;BME280;62742;52.136;4.500;2023-05-12T07:09:21;101853.50;;;13.70;98.63
72857;BME280;62742;52.136;4.500;2023-05-12T07:11:47;101857.06;;;13.68;97.52
72857;BME280;62742;52.136;4.500;2023-05-12T07:14:14;101850.13;;;13.59;98.02
72857;BME280;62742;52.136;4.500;2023-05-12T07:16:40;101859.69;;;13.68;98.57
72857;BME280;62742;52.136;4.500;2023-05-12T07:19:06;101860.44;;;13.79;98.25
72857;BME280;62742;52.136;4.500;2023-05-12T07:21:34;101864.47;;;14.08;97.59
72857;BME280;62742;52.136;4.500;2023-05-12T07:24:01;101863.34;;;14.26;96.05
72857;BME280;62742;52.136;4.500;2023-05-12T07:26:28;101867.59;;;14.36;96.88
72857;BME280;62742;52.136;4.500;2023-05-12T07:28:55;101866.38;;;14.58;94.48
72857;BME280;62742;52.136;4.500;2023-05-12T07:31:22;101866.34;;;14.62;93.56
72857;BME280;62742;52.136;4.500;2023-05-12T07:33:48;101870.03;;;14.48;93.49
72857;BME280;62742;52.136;4.500;2023-05-12T07:36:14;101868.59;;;14.27;93.05
72857;BME280;62742;52.136;4.500;2023-05-12T07:38:40;101875.53;;;14.36;92.94
72857;BME280;62742;52.136;4.500;2023-05-12T07:41:06;101867.59;;;14.34;93.90
72857;BME280;62742;52.136;4.500;2023-05-12T07:43:32;101878.69;;;14.63;93.33
72857;BME280;62742;52.136;4.500;2023-05-12T07:45:59;101877.75;;;14.65;92.27
72857;BME280;62742;52.136;4.500;2023-05-12T07:48:25;101875.25;;;14.54;90.31
72857;BME280;62742;52.136;4.500;2023-05-12T07:50:52;101883.16;;;14.59;90.79
72857;BME280;62742;52.136;4.500;2023-05-12T07:53:18;101888.16;;;14.77;90.87
72857;BME280;62742;52.136;4.500;2023-05-12T07:55:44;101885.16;;;14.98;90.32
72857;BME280;62742;52.136;4.500;2023-05-12T07:58:11;101884.94;;;15.10;89.66
72857;BME280;62742;52.136;4.500;2023-05-12T08:00:37;101882.53;;;15.46;87.94
72857;BME280;62742;52.136;4.500;2023-05-12T08:03:05;101882.81;;;15.77;87.19
72857;BME280;62742;52.136;4.500;2023-05-12T08:05:32;101881.19;;;15.70;84.75
72857;BME280;62742;52.136;4.500;2023-05-12T08:07:58;101898.38;;;15.47;85.67
72857;BME280;62742;52.136;4.500;2023-05-12T08:10:25;101890.66;;;15.37;85.14
72857;BME280;62742;52.136;4.500;2023-05-12T08:12:54;101897.88;;;15.27;85.87
72857;BME280;62742;52.136;4.500;2023-05-12T08:15:21;101893.44;;;15.29;86.00
72857;BME280;62742;52.136;4.500;2023-05-12T08:17:47;101898.50;;;15.41;87.18
72857;BME280;62742;52.136;4.500;2023-05-12T08:20:13;101895.97;;;15.35;87.30
72857;BME280;62742;52.136;4.500;2023-05-12T08:22:40;101900.31;;;15.41;87.05
72857;BME280;62742;52.136;4.500;2023-05-12T08:25:07;101892.88;;;15.60;82.83
72857;BME280;62742;52.136;4.500;2023-05-12T08:27:36;101886.19;;;15.85;84.17
72857;BME280;62742;52.136;4.500;2023-05-12T08:30:02;101893.06;;;15.96;84.79
72857;BME280;62742;52.136;4.500;2023-05-12T08:32:28;101895.00;;;15.86;83.94
72857;BME280;62742;52.136;4.500;2023-05-12T08:34:59;101892.91;;;16.02;84.79
72857;BME280;62742;52.136;4.500;2023-05-12T08:37:25;101891.94;;;16.06;82.14
72857;BME280;62742;52.136;4.500;2023-05-12T08:39:52;101907.16;;;15.98;83.64
72857;BME280;62742;52.136;4.500;2023-05-12T08:42:29;101910.34;;;16.14;83.49
72857;BME280;62742;52.136;4.500;2023-05-12T08:45:07;101912.38;;;16.01;82.87
72857;BME280;62742;52.136;4.500;2023-05-12T08:47:34;101904.28;;;16.07;80.35
72857;BME280;62742;52.136;4.500;2023-05-12T08:50:03;101913.75;;;16.19;82.52
72857;BME280;62742;52.136;4.500;2023-05-12T08:52:31;101914.72;;;16.55;80.01
72857;BME280;62742;52.136;4.500;2023-05-12T08:54:58;101915.41;;;17.01;81.51
72857;BME280;62742;52.136;4.500;2023-05-12T08:57:26;101909.94;;;16.70;78.45
72857;BME280;62742;52.136;4.500;2023-05-12T08:59:53;101916.13;;;16.70;80.27
72857;BME280;62742;52.136;4.500;2023-05-12T09:02:21;101909.59;;;16.85;78.53
72857;BME280;62742;52.136;4.500;2023-05-12T09:04:49;101912.25;;;16.85;80.31
72857;BME280;62742;52.136;4.500;2023-05-12T09:07:17;101915.88;;;16.81;79.96
72857;BME280;62742;52.136;4.500;2023-05-12T09:09:45;101911.41;;;17.19;77.74
72857;BME280;62742;52.136;4.500;2023-05-12T09:12:14;101920.00;;;17.30;77.72
72857;BME280;62742;52.136;4.500;2023-05-12T09:14:47;101920.41;;;17.48;76.68
72857;BME280;62742;52.136;4.500;2023-05-12T09:17:29;101916.00;;;17.47;75.67
72857;BME280;62742;52.136;4.500;2023-05-12T09:19:55;101913.28;;;17.48;76.52
72857;BME280;62742;52.136;4.500;2023-05-12T09:22:30;101921.41;;;17.09;77.42
72857;BME280;62742;52.136;4.500;2023-05-12T09:25:00;101920.97;;;17.59;76.69
72857;BME280;62742;52.136;4.500;2023-05-12T09:27:46;101916.72;;;18.16;73.19
72857;BME280;62742;52.136;4.500;2023-05-12T09:30:14;101917.13;;;17.38;76.27
72857;BME280;62742;52.136;4.500;2023-05-12T09:32:40;101922.75;;;17.26;75.86
72857;BME280;62742;52.136;4.500;2023-05-12T09:35:07;101930.00;;;17.19;77.09
72857;BME280;62742;52.136;4.500;2023-05-12T09:37:38;101926.09;;;17.34;76.62
72857;BME280;62742;52.136;4.500;2023-05-12T09:40:06;101928.91;;;17.61;76.78
72857;BME280;62742;52.136;4.500;2023-05-12T09:42:34;101919.75;;;17.71;76.30
72857;BME280;62742;52.136;4.500;2023-05-12T09:47:33;101926.69;;;17.76;73.57
72857;BME280;62742;52.136;4.500;2023-05-12T09:50:05;101930.09;;;18.13;74.16
72857;BME280;62742;52.136;4.500;2023-05-12T09:52:38;101930.38;;;18.34;74.87
72857;BME280;62742;52.136;4.500;2023-05-12T09:55:09;101928.81;;;18.55;72.86
72857;BME280;62742;52.136;4.500;2023-05-12T09:57:38;101929.91;;;18.77;74.00
72857;BME280;62742;52.136;4.500;2023-05-12T10:00:06;101929.03;;;19.05;69.83
72857;BME280;62742;52.136;4.500;2023-05-12T10:02:35;101934.44;;;18.45;71.96
72857;BME280;62742;52.136;4.500;2023-05-12T10:05:05;101931.84;;;18.72;72.20
72857;BME280;62742;52.136;4.500;2023-05-12T10:07:38;101935.16;;;19.34;69.41
72857;BME280;62742;52.136;4.500;2023-05-12T10:10:05;101940.47;;;19.34;70.03
72857;BME280;62742;52.136;4.500;2023-05-12T10:12:33;101931.31;;;19.16;71.26
72857;BME280;62742;52.136;4.500;2023-05-12T10:15:01;101934.72;;;19.71;71.51
72857;BME280;62742;52.136;4.500;2023-05-12T10:17:28;101935.03;;;19.62;70.04
72857;BME280;62742;52.136;4.500;2023-05-12T10:19:56;101938.16;;;19.75;68.38
72857;BME280;62742;52.136;4.500;2023-05-12T10:22:23;101936.06;;;19.58;67.11
72857;BME280;62742;52.136;4.500;2023-05-12T10:24:52;101937.38;;;19.46;68.58
72857;BME280;62742;52.136;4.500;2023-05-12T10:27:19;101932.00;;;19.73;67.51
72857;BME280;62742;52.136;4.500;2023-05-12T10:29:47;101944.22;;;19.53;68.72
72857;BME280;62742;52.136;4.500;2023-05-12T10:32:14;101935.88;;;19.62;68.09
72857;BME280;62742;52.136;4.500;2023-05-12T10:34:40;101932.97;;;19.95;68.99
72857;BME280;62742;52.136;4.500;2023-05-12T10:37:08;101935.78;;;20.38;64.74
72857;BME280;62742;52.136;4.500;2023-05-12T10:39:36;101928.19;;;19.55;66.50
72857;BME280;62742;52.136;4.500;2023-05-12T10:42:14;101924.72;;;20.02;69.00
72857;BME280;62742;52.136;4.500;2023-05-12T10:44:49;101938.78;;;20.29;68.23
72857;BME280;62742;52.136;4.500;2023-05-12T10:47:17;101930.31;;;21.07;66.61
72857;BME280;62742;52.136;4.500;2023-05-12T10:49:43;101932.03;;;20.66;64.28
72857;BME280;62742;52.136;4.500;2023-05-12T10:52:10;101939.22;;;19.69;68.31
72857;BME280;62742;52.136;4.500;2023-05-12T10:54:41;101934.47;;;20.26;66.93
72857;BME280;62742;52.136;4.500;2023-05-12T10:57:12;101938.97;;;19.77;68.61
72857;BME280;62742;52.136;4.500;2023-05-12T10:59:46;101929.94;;;20.05;68.22
72857;BME280;62742;52.136;4.500;2023-05-12T11:02:15;101923.81;;;19.52;68.08
72857;BME280;62742;52.136;4.500;2023-05-12T11:04:50;101932.28;;;20.14;67.34
72857;BME280;62742;52.136;4.500;2023-05-12T11:07:25;101930.69;;;20.54;66.67
72857;BME280;62742;52.136;4.500;2023-05-12T11:09:54;101932.44;;;20.33;65.45
72857;BME280;62742;52.136;4.500;2023-05-12T11:12:23;101935.75;;;19.92;65.69
72857;BME280;62742;52.136;4.500;2023-05-12T11:14:52;101946.50;;;20.60;64.17
72857;BME280;62742;52.136;4.500;2023-05-12T11:17:18;101942.16;;;19.61;65.19
72857;BME280;62742;52.136;4.500;2023-05-12T11:19:46;101938.91;;;20.71;64.96
72857;BME280;62742;52.136;4.500;2023-05-12T11:22:17;101937.28;;;21.11;61.54
72857;BME280;62742;52.136;4.500;2023-05-12T11:24:46;101940.22;;;21.26;63.54
72857;BME280;62742;52.136;4.500;2023-05-12T11:27:14;101935.75;;;21.67;64.92
72857;BME280;62742;52.136;4.500;2023-05-12T11:29:42;101948.53;;;20.53;60.58
72857;BME280;62742;52.136;4.500;2023-05-12T11:32:11;101947.03;;;20.46;64.64
72857;BME280;62742;52.136;4.500;2023-05-12T11:34:40;101947.75;;;21.16;62.09
72857;BME280;62742;52.136;4.500;2023-05-12T11:37:06;101939.81;;;20.72;63.27
72857;BME280;62742;52.136;4.500;2023-05-12T11:39:32;101939.66;;;20.75;62.92
72857;BME280;62742;52.136;4.500;2023-05-12T11:42:02;101945.38;;;20.88;62.35
72857;BME280;62742;52.136;4.500;2023-05-12T11:44:30;101945.38;;;21.10;60.67
72857;BME280;62742;52.136;4.500;2023-05-12T11:47:18;101948.59;;;21.18;60.77
72857;BME280;62742;52.136;4.500;2023-05-12T11:49:54;101948.41;;;21.64;64.57
72857;BME280;62742;52.136;4.500;2023-05-12T11:52:21;101948.44;;;21.42;61.43
72857;BME280;62742;52.136;4.500;2023-05-12T11:54:49;101928.81;;;22.03;59.77
72857;BME280;62742;52.136;4.500;2023-05-12T12:00:00;101954.03;;;22.37;59.57
72857;BME280;62742;52.136;4.500;2023-05-12T12:02:28;101948.53;;;21.81;59.21
72857;BME280;62742;52.136;4.500;2023-05-12T12:04:55;101947.38;;;21.47;59.50
72857;BME280;62742;52.136;4.500;2023-05-12T12:09:56;101940.41;;;22.03;58.90
72857;BME280;62742;52.136;4.500;2023-05-12T12:12:22;101951.56;;;21.74;60.47
72857;BME280;62742;52.136;4.500;2023-05-12T12:14:48;101957.44;;;20.98;61.31
72857;BME280;62742;52.136;4.500;2023-05-12T12:17:15;101962.44;;;20.40;63.22
72857;BME280;62742;52.136;4.500;2023-05-12T12:19:41;101959.22;;;20.30;62.54
72857;BME280;62742;52.136;4.500;2023-05-12T12:22:08;101974.97;;;20.14;62.04
72857;BME280;62742;52.136;4.500;2023-05-12T12:24:34;101968.78;;;20.35;62.29
72857;BME280;62742;52.136;4.500;2023-05-12T12:27:00;101965.53;;;20.27;65.14
72857;BME280;62742;52.136;4.500;2023-05-12T12:29:26;101970.34;;;20.65;64.44
72857;BME280;62742;52.136;4.500;2023-05-12T12:31:53;101968.75;;;21.05;60.28
72857;BME280;62742;52.136;4.500;2023-05-12T12:34:19;101962.50;;;21.67;60.64
72857;BME280;62742;52.136;4.500;2023-05-12T12:36:48;101975.78;;;21.28;59.25
72857;BME280;62742;52.136;4.500;2023-05-12T12:39:15;101969.25;;;20.92;61.01
72857;BME280;62742;52.136;4.500;2023-05-12T12:41:41;101957.94;;;21.71;61.71
72857;BME280;62742;52.136;4.500;2023-05-12T12:44:08;101965.66;;;21.57;59.76
72857;BME280;62742;52.136;4.500;2023-05-12T12:46:34;101967.78;;;21.69;57.58
72857;BME280;62742;52.136;4.500;2023-05-12T12:49:02;101970.03;;;21.59;58.18
72857;BME280;62742;52.136;4.500;2023-05-12T12:51:29;101969.13;;;21.79;60.09
72857;BME280;62742;52.136;4.500;2023-05-12T12:53:57;101971.22;;;22.12;57.71
72857;BME280;62742;52.136;4.500;2023-05-12T12:56:23;101968.38;;;22.55;57.95